Terminal Aerodrome Forecast
Issued by NWS Albany, NY

Home | Current Version | Previous Version | Text Only | Print | Product List | Glossary On
Versions: 1 2 3 4 5 6 7 8 9 10 11 12 13 14 15 16 17 18 19 20 21 22 23
000
FTUS41 KALY 010520
TAFPOU
TAF
KPOU 010520Z 0106/0206 14005KT 6SM -SHRA BR VCTS BKN025 BKN050CB
      TEMPO 0106/0108 VRB10G20KT 3SM -SHRA BR SCT008 OVC015
     FM010800 VRB03KT 4SM BR VCSH SCT008 OVC015
      TEMPO 0108/0111 2SM BR BKN008 OVC015
     FM011300 21007KT P6SM VCSH BKN050
     FM012200 24008KT P6SM SCT060=

USA.gov is the U.S. government's official web portal to all federal, state and local government web resources and services.